createdAt,value
2018-08-16T00:00:51.473Z,3.50
2018-08-16T00:03:33.422Z,3.70
2018-08-16T00:06:14.440Z,3.07
2018-08-16T00:08:55.110Z,3.40
2018-08-16T00:11:35.824Z,3.83
2018-08-16T00:14:16.397Z,3.13
2018-08-16T00:16:57.025Z,3.93
2018-08-16T00:19:37.632Z,3.33
2018-08-16T00:22:18.193Z,3.53
2018-08-16T00:24:59.309Z,3.73
2018-08-16T00:27:40.198Z,3.30
2018-08-16T00:30:21.682Z,3.90
2018-08-16T00:33:03.242Z,3.87
2018-08-16T00:35:43.844Z,3.27
2018-08-16T00:38:24.508Z,3.67
2018-08-16T00:41:05.058Z,3.77
2018-08-16T00:43:46.163Z,3.50
2018-08-16T00:46:27.139Z,3.47
2018-08-16T00:49:07.856Z,4.23
2018-08-16T00:51:49.464Z,3.77
2018-08-16T00:54:30.937Z,3.97
2018-08-16T00:57:11.721Z,3.70
2018-08-16T00:59:52.393Z,4.33
2018-08-16T01:02:33.053Z,3.77
2018-08-16T01:05:14.035Z,4.20
2018-08-16T01:07:55.306Z,3.93
2018-08-16T01:10:35.974Z,4.00
2018-08-16T01:13:17.169Z,3.80
2018-08-16T01:15:58.595Z,4.00
2018-08-16T01:18:39.650Z,4.07
2018-08-16T01:21:21.093Z,3.70
2018-08-16T01:24:01.717Z,4.20
2018-08-16T01:26:42.271Z,4.40
2018-08-16T01:29:23.018Z,4.97
2018-08-16T01:32:04.382Z,4.47
2018-08-16T01:34:45.075Z,4.50
2018-08-16T01:37:25.624Z,4.73
2018-08-16T01:40:07.284Z,4.77
2018-08-16T01:42:47.797Z,3.70
2018-08-16T01:45:29.331Z,5.00
2018-08-16T01:48:11.272Z,5.40
2018-08-16T01:50:52.385Z,4.97
2018-08-16T01:53:32.975Z,4.70
2018-08-16T01:56:13.496Z,4.37
2018-08-16T01:58:54.089Z,4.00
2018-08-16T02:01:34.708Z,5.07
2018-08-16T02:04:15.491Z,4.87
2018-08-16T02:06:56.173Z,4.77
2018-08-16T02:09:37.529Z,5.00
2018-08-16T02:12:18.248Z,4.83
2018-08-16T02:14:58.874Z,6.10
2018-08-16T02:17:39.578Z,4.90
2018-08-16T02:20:20.994Z,5.53
2018-08-16T02:23:02.746Z,5.43
2018-08-16T02:25:44.238Z,5.67
2018-08-16T02:28:25.713Z,5.30
2018-08-16T02:31:06.268Z,5.17
2018-08-16T02:33:46.966Z,5.13
2018-08-16T02:36:27.581Z,5.10
2018-08-16T02:39:09.486Z,4.93
2018-08-16T02:41:50.627Z,5.60
2018-08-16T02:44:32.237Z,5.13
2018-08-16T02:47:12.830Z,5.33
2018-08-16T02:49:53.346Z,6.00
2018-08-16T02:52:34.018Z,5.40
2018-08-16T02:55:15.389Z,5.70
2018-08-16T02:57:56.037Z,5.83
2018-08-16T03:00:37.621Z,5.40
2018-08-16T03:03:19.244Z,5.80
2018-08-16T03:05:59.945Z,5.50
2018-08-16T03:08:40.573Z,5.70
2018-08-16T03:11:21.078Z,6.60
2018-08-16T03:14:02.699Z,5.00
2018-08-16T03:16:43.357Z,6.17
2018-08-16T03:19:23.998Z,5.47
2018-08-16T03:22:05.569Z,5.37
2018-08-16T03:24:47.101Z,5.50
2018-08-16T03:27:27.799Z,5.80
2018-08-16T03:30:08.417Z,6.40
2018-08-16T03:32:50.077Z,5.40
2018-08-16T03:35:31.447Z,5.87
2018-08-16T03:38:12.963Z,4.90
2018-08-16T03:40:54.022Z,5.10
2018-08-16T03:43:35.322Z,5.77
2018-08-16T03:46:15.875Z,5.90
2018-08-16T03:48:56.411Z,5.00
2018-08-16T03:51:37.281Z,6.30
2018-08-16T03:54:18.751Z,5.10
2018-08-16T03:56:59.367Z,5.80
2018-08-16T03:59:40.810Z,4.73
2018-08-16T04:02:22.301Z,5.13
2018-08-16T04:05:02.916Z,5.73
2018-08-16T04:07:43.554Z,5.83
2018-08-16T04:10:24.254Z,4.73
2018-08-16T04:13:05.077Z,5.17
2018-08-16T04:15:46.557Z,6.00
2018-08-16T04:18:27.176Z,5.10
2018-08-16T04:21:07.753Z,4.80
2018-08-16T04:23:48.621Z,5.30
2018-08-16T04:26:30.220Z,5.70
2018-08-16T04:29:11.674Z,6.37
2018-08-16T04:31:52.205Z,5.67
2018-08-16T04:34:32.898Z,7.10
2018-08-16T04:37:14.305Z,6.27
2018-08-16T04:39:55.050Z,6.90
2018-08-16T04:42:36.564Z,6.90
2018-08-16T04:45:17.983Z,7.00
2018-08-16T04:47:58.626Z,7.40
2018-08-16T04:50:39.176Z,6.83
2018-08-16T04:53:19.896Z,7.57
2018-08-16T04:56:01.347Z,8.57
2018-08-16T04:58:42.085Z,8.57
2018-08-16T05:01:23.391Z,8.03
2018-08-16T05:04:04.011Z,7.77
2018-08-16T05:06:45.820Z,6.43
2018-08-16T05:09:27.243Z,8.93
2018-08-16T05:12:07.795Z,7.50
2018-08-16T05:14:48.486Z,8.00
2018-08-16T05:17:29.960Z,7.70
2018-08-16T05:20:12.673Z,6.90
2018-08-16T05:22:54.524Z,6.53
2018-08-16T05:25:35.831Z,7.00
2018-08-16T05:28:16.396Z,6.90
2018-08-16T05:30:56.867Z,7.93
2018-08-16T05:33:37.580Z,7.27
2018-08-16T05:36:18.237Z,8.20
2018-08-16T05:38:58.737Z,7.67
2018-08-16T05:41:39.527Z,7.87
2018-08-16T05:44:20.958Z,6.87
2018-08-16T05:47:02.129Z,7.30
2018-08-16T05:49:43.249Z,6.43
2018-08-16T05:52:23.834Z,6.23
2018-08-16T05:55:04.476Z,6.10
2018-08-16T05:57:45.070Z,6.10
2018-08-16T06:00:25.802Z,6.20
2018-08-16T06:03:07.226Z,5.80
2018-08-16T06:05:48.742Z,5.63
2018-08-16T06:08:29.915Z,6.10
2018-08-16T06:11:10.858Z,5.87
2018-08-16T06:13:51.597Z,6.27
2018-08-16T06:16:33.125Z,6.33
2018-08-16T06:19:13.715Z,5.90
2018-08-16T06:21:54.270Z,5.43
2018-08-16T06:24:34.835Z,4.53
2018-08-16T06:27:15.478Z,5.00
2018-08-16T06:29:56.893Z,3.90
2018-08-16T06:32:37.545Z,3.47
2018-08-16T06:35:18.924Z,4.10
2018-08-16T06:37:59.562Z,3.40
2018-08-16T06:40:40.085Z,4.90
2018-08-16T06:43:20.707Z,4.40
2018-08-16T06:46:01.425Z,4.33
2018-08-16T06:48:42.074Z,4.10
2018-08-16T06:51:22.641Z,5.53
2018-08-16T06:54:03.271Z,4.60
2018-08-16T06:56:43.905Z,4.37
2018-08-16T06:59:25.313Z,4.10
2018-08-16T07:02:06.021Z,4.40
2018-08-16T07:04:46.713Z,4.07
2018-08-16T07:07:27.282Z,4.90
2018-08-16T07:10:07.857Z,5.00
2018-08-16T07:12:48.523Z,4.57
2018-08-16T07:15:29.027Z,5.37
2018-08-16T07:18:09.661Z,7.17
2018-08-16T07:20:50.182Z,5.20
2018-08-16T07:23:30.791Z,5.40
2018-08-16T07:26:11.541Z,5.03
2018-08-16T07:28:52.998Z,5.53
2018-08-16T07:31:33.701Z,5.40
2018-08-16T07:34:14.209Z,4.20
2018-08-16T07:36:55.646Z,4.43
2018-08-16T07:39:36.375Z,5.60
2018-08-16T07:42:17.116Z,4.90
2018-08-16T07:44:58.551Z,4.77
2018-08-16T07:47:40.312Z,4.40
2018-08-16T07:50:21.620Z,4.47
2018-08-16T07:53:02.272Z,4.00
2018-08-16T07:55:42.818Z,3.53
2018-08-16T07:58:23.556Z,3.60
2018-08-16T08:01:04.080Z,3.77
2018-08-16T08:03:44.730Z,4.43
2018-08-16T08:06:25.414Z,8.03
2018-08-16T08:09:06.260Z,5.30
2018-08-16T08:11:47.557Z,4.20
2018-08-16T08:14:29.085Z,4.00
2018-08-16T08:17:10.540Z,3.73
2018-08-16T08:19:51.206Z,3.97
2018-08-16T08:22:31.874Z,3.63
2018-08-16T08:25:14.487Z,3.27
2018-08-16T08:27:55.939Z,3.60
2018-08-16T08:30:36.614Z,3.37
2018-08-16T08:33:17.202Z,3.83
2018-08-16T08:35:57.794Z,3.27
2018-08-16T08:38:38.556Z,4.40
2018-08-16T08:41:19.290Z,3.07
2018-08-16T08:44:00.698Z,2.73
2018-08-16T08:46:41.263Z,3.57
2018-08-16T08:49:22.028Z,3.30
2018-08-16T08:52:03.419Z,3.90
2018-08-16T08:54:46.487Z,3.20
2018-08-16T08:57:27.818Z,3.27
2018-08-16T09:00:09.278Z,3.33
2018-08-16T09:02:50.867Z,2.80
2018-08-16T09:05:31.367Z,3.03
2018-08-16T09:08:12.105Z,3.53
2018-08-16T09:10:53.872Z,3.67
2018-08-16T09:13:36.165Z,3.33
2018-08-16T09:16:17.565Z,4.70
2018-08-16T09:18:58.393Z,4.63
2018-08-16T09:21:40.116Z,3.90
2018-08-16T09:24:21.269Z,2.83
2018-08-16T09:27:02.687Z,3.93
2018-08-16T09:29:43.461Z,3.40
2018-08-16T09:32:25.179Z,4.00
2018-08-16T09:35:06.428Z,4.57
2018-08-16T09:37:47.058Z,3.93
2018-08-16T09:40:27.679Z,4.23
2018-08-16T09:43:08.270Z,3.17
2018-08-16T09:45:48.905Z,3.90
2018-08-16T09:48:30.223Z,7.10
2018-08-16T09:51:10.700Z,4.27
2018-08-16T09:53:51.346Z,3.73
2018-08-16T09:56:32.854Z,5.23
2018-08-16T09:59:13.424Z,4.27
2018-08-16T10:01:54.244Z,3.83
2018-08-16T10:04:35.599Z,4.00
2018-08-16T10:07:16.303Z,5.07
2018-08-16T10:09:56.931Z,4.37
2018-08-16T10:12:38.450Z,3.60
2018-08-16T10:15:19.138Z,4.10
2018-08-16T10:18:00.619Z,3.67
2018-08-16T10:20:41.203Z,3.80
2018-08-16T10:23:22.646Z,3.63
2018-08-16T10:26:04.273Z,4.20
2018-08-16T10:28:45.681Z,5.70
2018-08-16T10:31:26.477Z,7.90
2018-08-16T10:34:07.033Z,3.60
2018-08-16T10:36:47.611Z,3.23
2018-08-16T10:39:28.258Z,3.53
2018-08-16T10:42:09.898Z,3.73
2018-08-16T10:44:50.617Z,3.97
2018-08-16T10:47:32.082Z,3.30
2018-08-16T10:50:13.559Z,3.17
2018-08-16T10:52:54.090Z,3.70
2018-08-16T10:55:34.830Z,3.53
2018-08-16T10:58:16.745Z,3.30
2018-08-16T11:00:57.797Z,3.43
2018-08-16T11:03:39.379Z,3.77
2018-08-16T11:06:21.050Z,3.87
2018-08-16T11:09:02.703Z,3.40
2018-08-16T11:11:44.165Z,3.87
2018-08-16T11:14:24.964Z,3.33
2018-08-16T11:17:06.465Z,3.57
2018-08-16T11:19:47.089Z,2.80
2018-08-16T11:22:28.573Z,3.20
2018-08-16T11:25:09.965Z,3.20
2018-08-16T11:27:50.791Z,2.90
2018-08-16T11:30:32.378Z,2.80
2018-08-16T11:33:13.903Z,3.53
2018-08-16T11:35:55.045Z,3.23
2018-08-16T11:38:36.086Z,3.80
2018-08-16T11:41:16.783Z,3.40
2018-08-16T11:43:57.966Z,4.23
2018-08-16T11:46:39.473Z,3.30
2018-08-16T11:49:20.681Z,2.87
2018-08-16T11:52:01.427Z,3.60
2018-08-16T11:54:42.914Z,3.70
2018-08-16T11:57:26.267Z,2.63
2018-08-16T12:00:06.950Z,3.87
2018-08-16T12:02:47.899Z,2.63
2018-08-16T12:05:29.194Z,3.30
2018-08-16T12:08:12.940Z,2.60
2018-08-16T12:10:54.292Z,3.53
2018-08-16T12:13:35.850Z,2.97
2018-08-16T12:16:16.999Z,2.63
2018-08-16T12:18:58.439Z,3.37
2018-08-16T12:21:39.434Z,2.63
2018-08-16T12:24:20.070Z,3.47
2018-08-16T12:27:00.707Z,2.90
2018-08-16T12:29:41.284Z,3.03
2018-08-16T12:32:21.993Z,3.00
2018-08-16T12:35:02.617Z,3.20
2018-08-16T12:37:44.765Z,3.27
2018-08-16T12:40:28.799Z,2.60
2018-08-16T12:43:10.173Z,3.00
2018-08-16T12:45:51.239Z,2.90
2018-08-16T12:48:35.858Z,2.93
2018-08-16T12:51:19.387Z,3.77
2018-08-16T12:53:59.919Z,2.83
2018-08-16T12:56:40.598Z,3.07
2018-08-16T12:59:21.344Z,3.13
2018-08-16T13:02:02.143Z,2.60
2018-08-16T13:04:42.674Z,2.80
2018-08-16T13:07:23.329Z,2.77
2018-08-16T13:10:04.012Z,2.63
2018-08-16T13:12:45.461Z,2.80
2018-08-16T13:15:26.096Z,2.90
2018-08-16T13:18:06.657Z,2.80
2018-08-16T13:20:47.228Z,2.50
2018-08-16T13:23:28.057Z,2.37
2018-08-16T13:26:09.571Z,3.07
2018-08-16T13:28:50.110Z,2.40
2018-08-16T13:31:30.855Z,2.57
2018-08-16T13:34:12.450Z,2.70
2018-08-16T13:36:53.893Z,2.80
2018-08-16T13:39:34.737Z,2.60
2018-08-16T13:42:15.938Z,3.03
2018-08-16T13:44:56.715Z,3.10
2018-08-16T13:47:38.124Z,3.47
2018-08-16T13:50:18.758Z,3.13
2018-08-16T13:52:59.303Z,2.40
2018-08-16T13:55:39.796Z,2.50
2018-08-16T13:58:20.558Z,2.70
2018-08-16T14:01:01.312Z,2.70
2018-08-16T14:03:42.817Z,3.20
2018-08-16T14:06:23.403Z,2.40
2018-08-16T14:09:04.493Z,2.67
2018-08-16T14:11:46.269Z,2.90
2018-08-16T14:14:27.345Z,2.50
2018-08-16T14:17:08.807Z,2.87
2018-08-16T14:19:51.142Z,3.17
2018-08-16T14:22:34.757Z,3.50
2018-08-16T14:25:16.767Z,2.83
2018-08-16T14:27:58.338Z,3.23
2018-08-16T14:30:38.895Z,2.60
2018-08-16T14:33:19.466Z,2.70
2018-08-16T14:36:00.144Z,2.30
2018-08-16T14:38:42.629Z,2.97
2018-08-16T14:41:24.886Z,2.00
2018-08-16T14:44:07.189Z,2.70
2018-08-16T14:46:50.021Z,3.93
2018-08-16T14:49:33.377Z,3.63
2018-08-16T14:52:16.183Z,4.40
2018-08-16T14:54:59.752Z,3.40
2018-08-16T14:57:40.916Z,3.07
2018-08-16T15:00:21.739Z,2.97
2018-08-16T15:03:03.195Z,2.90
2018-08-16T15:05:47.551Z,3.00
2018-08-16T15:08:28.298Z,3.70
2018-08-16T15:11:08.927Z,2.40
2018-08-16T15:13:50.346Z,3.63
2018-08-16T15:16:30.893Z,2.60
2018-08-16T15:19:11.513Z,3.00
2018-08-16T15:21:52.224Z,2.47
2018-08-16T15:24:33.585Z,2.40
2018-08-16T15:27:14.995Z,2.70
2018-08-16T15:29:55.681Z,2.33
2018-08-16T15:32:36.299Z,2.27
2018-08-16T15:35:16.884Z,2.33
2018-08-16T15:37:58.560Z,2.73
2018-08-16T15:40:39.195Z,2.67
2018-08-16T15:43:19.782Z,2.30
2018-08-16T15:46:01.287Z,2.20
2018-08-16T15:48:43.162Z,2.33
2018-08-16T15:51:24.301Z,3.43
2018-08-16T15:54:05.134Z,2.67
2018-08-16T15:56:46.397Z,2.13
2018-08-16T15:59:26.991Z,2.40
2018-08-16T16:02:07.583Z,2.17
2018-08-16T16:04:48.351Z,2.50
2018-08-16T16:07:29.885Z,2.60
2018-08-16T16:10:11.544Z,2.47
2018-08-16T16:12:52.132Z,2.43
2018-08-16T16:15:33.674Z,2.67
2018-08-16T16:18:15.084Z,2.60
2018-08-16T16:20:56.673Z,2.00
2018-08-16T16:23:37.237Z,2.33
2018-08-16T16:26:17.883Z,2.10
2018-08-16T16:28:58.569Z,2.80
2018-08-16T16:31:39.205Z,2.63
2018-08-16T16:34:20.618Z,3.27
2018-08-16T16:37:01.172Z,2.50
2018-08-16T16:39:42.689Z,3.00
2018-08-16T16:42:24.274Z,2.10
2018-08-16T16:45:05.713Z,2.50
2018-08-16T16:47:46.403Z,2.80
2018-08-16T16:50:27.101Z,2.47
2018-08-16T16:53:07.697Z,2.30
2018-08-16T16:55:49.062Z,2.43
2018-08-16T16:58:30.082Z,2.63
2018-08-16T17:01:11.461Z,2.53
2018-08-16T17:03:52.957Z,2.80
2018-08-16T17:06:34.455Z,2.40
2018-08-16T17:09:15.897Z,2.83
2018-08-16T17:11:56.556Z,2.40
2018-08-16T17:14:38.152Z,2.40
2018-08-16T17:17:18.812Z,2.67
2018-08-16T17:19:59.713Z,2.27
2018-08-16T17:22:40.413Z,2.57
2018-08-16T17:25:21.859Z,2.23
2018-08-16T17:28:02.545Z,2.47
2018-08-16T17:30:44.051Z,2.37
2018-08-16T17:33:24.615Z,2.60
2018-08-16T17:36:05.138Z,2.43
2018-08-16T17:38:45.706Z,2.57
2018-08-16T17:41:27.185Z,3.00
2018-08-16T17:44:07.892Z,2.90
2018-08-16T17:46:49.637Z,2.67
2018-08-16T17:49:30.899Z,3.20
2018-08-16T17:52:11.596Z,2.90
2018-08-16T17:54:52.134Z,2.60
2018-08-16T17:57:32.858Z,2.67
2018-08-16T18:00:13.407Z,2.60
2018-08-16T18:02:54.070Z,3.27
2018-08-16T18:05:34.722Z,3.30
2018-08-16T18:08:15.434Z,2.90
2018-08-16T18:10:55.964Z,2.50
2018-08-16T18:13:36.860Z,2.40
2018-08-16T18:16:17.408Z,2.83
2018-08-16T18:18:57.995Z,2.37
2018-08-16T18:21:38.735Z,2.47
2018-08-16T18:24:20.305Z,2.57
2018-08-16T18:27:00.954Z,2.87
2018-08-16T18:29:41.662Z,3.30
2018-08-16T18:32:23.170Z,2.30
2018-08-16T18:35:03.756Z,3.10
2018-08-16T18:37:45.298Z,2.73
2018-08-16T18:40:27.298Z,2.50
2018-08-16T18:43:09.072Z,2.30
2018-08-16T18:45:50.034Z,3.30
2018-08-16T18:48:31.455Z,2.37
2018-08-16T18:51:12.096Z,3.00
2018-08-16T18:53:53.506Z,2.57
2018-08-16T18:56:34.206Z,2.80
2018-08-16T18:59:15.051Z,2.90
2018-08-16T19:01:56.340Z,3.23
2018-08-16T19:04:36.965Z,3.00
2018-08-16T19:07:18.425Z,3.03
2018-08-16T19:09:58.991Z,2.97
2018-08-16T19:12:39.586Z,3.00
2018-08-16T19:15:21.162Z,2.80
2018-08-16T19:18:02.518Z,3.10
2018-08-16T19:20:43.039Z,5.30
2018-08-16T19:23:23.750Z,3.30
2018-08-16T19:26:04.540Z,3.33
2018-08-16T19:28:46.334Z,2.90
2018-08-16T19:31:27.415Z,3.20
2018-08-16T19:34:08.046Z,3.30
2018-08-16T19:36:48.656Z,3.40
2018-08-16T19:39:30.109Z,2.40
2018-08-16T19:42:10.757Z,2.83
2018-08-16T19:44:51.355Z,2.40
2018-08-16T19:47:32.898Z,2.33
2018-08-16T19:50:13.440Z,2.43
2018-08-16T19:52:54.117Z,2.80
2018-08-16T19:55:34.692Z,2.70
2018-08-16T19:58:15.379Z,1.90
2018-08-16T20:00:56.008Z,2.87
2018-08-16T20:03:37.475Z,2.70
2018-08-16T20:06:18.899Z,2.77
2018-08-16T20:08:59.446Z,2.50
2018-08-16T20:11:40.949Z,3.30
2018-08-16T20:14:21.470Z,2.67
2018-08-16T20:17:02.208Z,2.53
2018-08-16T20:19:43.763Z,3.27
2018-08-16T20:22:24.415Z,2.80
2018-08-16T20:25:06.025Z,3.00
2018-08-16T20:27:47.478Z,2.67
2018-08-16T20:30:28.124Z,3.60
2018-08-16T20:33:09.563Z,3.33
2018-08-16T20:35:50.137Z,3.67
2018-08-16T20:38:31.618Z,3.27
2018-08-16T20:41:13.192Z,2.97
2018-08-16T20:43:54.287Z,3.60
2018-08-16T20:46:35.293Z,3.10
2018-08-16T20:49:15.867Z,3.00
2018-08-16T20:51:57.464Z,3.00
2018-08-16T20:54:37.997Z,2.53
2018-08-16T20:57:18.753Z,3.77
2018-08-16T20:59:59.428Z,2.73
2018-08-16T21:02:40.701Z,2.60
2018-08-16T21:05:21.226Z,3.40
2018-08-16T21:08:01.817Z,3.10
2018-08-16T21:10:43.078Z,3.20
2018-08-16T21:13:24.122Z,2.93
2018-08-16T21:16:04.736Z,3.67
2018-08-16T21:18:45.353Z,3.70
2018-08-16T21:21:26.153Z,3.30
2018-08-16T21:24:07.577Z,2.47
2018-08-16T21:26:48.282Z,4.30
2018-08-16T21:29:29.028Z,3.37
2018-08-16T21:32:11.100Z,3.10
2018-08-16T21:34:51.968Z,3.70
2018-08-16T21:37:32.605Z,2.93
2018-08-16T21:40:13.305Z,2.90
2018-08-16T21:42:53.961Z,3.50
2018-08-16T21:45:34.650Z,4.80
2018-08-16T21:48:15.173Z,4.10
2018-08-16T21:50:55.773Z,4.00
2018-08-16T21:53:36.515Z,4.87
2018-08-16T21:56:17.122Z,5.10
2018-08-16T21:58:57.769Z,4.57
2018-08-16T22:01:39.436Z,4.47
2018-08-16T22:04:19.992Z,4.30
2018-08-16T22:07:00.962Z,3.77
2018-08-16T22:09:42.337Z,3.73
2018-08-16T22:12:23.903Z,3.40
2018-08-16T22:15:05.565Z,4.57
2018-08-16T22:17:46.975Z,3.37
2018-08-16T22:20:27.688Z,4.07
2018-08-16T22:23:08.374Z,4.07
2018-08-16T22:25:49.814Z,3.93
2018-08-16T22:28:30.608Z,4.63
2018-08-16T22:31:12.169Z,4.03
2018-08-16T22:33:52.684Z,4.93
2018-08-16T22:36:33.346Z,3.60
2018-08-16T22:39:14.260Z,4.17
2018-08-16T22:41:55.496Z,3.50
2018-08-16T22:44:36.053Z,4.50
2018-08-16T22:47:16.603Z,4.33
2018-08-16T22:49:57.162Z,4.63
2018-08-16T22:52:38.426Z,4.20
2018-08-16T22:55:19.363Z,4.40
2018-08-16T22:58:00.131Z,4.37
2018-08-16T23:00:41.573Z,5.40
2018-08-16T23:03:22.277Z,4.73
2018-08-16T23:06:03.743Z,4.90
2018-08-16T23:08:44.411Z,5.30
2018-08-16T23:11:25.778Z,5.37
2018-08-16T23:14:06.581Z,4.53
2018-08-16T23:16:47.239Z,4.33
2018-08-16T23:19:28.741Z,5.00
2018-08-16T23:22:09.301Z,4.40
2018-08-16T23:24:50.021Z,5.20
2018-08-16T23:27:30.670Z,3.87
2018-08-16T23:30:11.974Z,4.70
2018-08-16T23:32:53.041Z,4.20
2018-08-16T23:35:34.746Z,4.97
2018-08-16T23:38:16.161Z,4.20
2018-08-16T23:40:57.700Z,5.00
2018-08-16T23:43:38.390Z,3.97
2018-08-16T23:46:19.727Z,4.17
2018-08-16T23:49:00.251Z,4.70
2018-08-16T23:51:40.759Z,4.13
2018-08-16T23:54:21.547Z,5.10
2018-08-16T23:57:02.054Z,5.07
2018-08-16T23:59:42.678Z,4.73
